Time;durP1;ratioP1;P1;durP2;ratioP2;P2;SDS_P1;SDS_P2;PMS_P1;PMS_P2;Temp;Humidity;BMP_temperature;BMP_pressure;BME280_temperature;BME280_humidity;BME280_pressure;Samples;Min_cycle;Max_cycle;Signal;HPM_P1;HPM_P2
2021/08/02 00:00:26;;;;;;;18.67;4.80;;;;;;;17.72;91.34;96025.69;5056244;28;20254;-68
2021/08/02 00:03:05;;;;;;;10.85;4.80;;;;;;;17.95;89.56;96037.25;5056454;28;20220;-68
2021/08/02 00:05:35;;;;;;;9.30;4.43;;;;;;;18.01;89.09;96035.53;5056608;28;20220;-68
2021/08/02 00:08:03;;;;;;;11.90;4.45;;;;;;;17.90;89.35;96038.97;5057385;28;20208;-68
2021/08/02 00:10:32;;;;;;;8.93;4.72;;;;;;;18.02;89.52;96029.16;5056414;28;20278;-68
2021/08/02 00:13:02;;;;;;;10.13;4.38;;;;;;;18.09;89.15;96037.88;5056394;28;20217;-68
2021/08/02 00:15:30;;;;;;;12.73;4.80;;;;;;;18.04;89.73;96035.88;5056484;28;20204;-68
2021/08/02 00:17:57;;;;;;;14.63;5.72;;;;;;;18.07;89.25;96034.63;5055734;28;20207;-68
2021/08/02 00:20:28;;;;;;;14.63;4.75;;;;;;;18.09;89.35;96024.56;5056818;28;20243;-68
2021/08/02 00:22:57;;;;;;;10.95;5.22;;;;;;;17.95;89.76;96033.78;5057047;28;20896;-68
2021/08/02 00:25:24;;;;;;;10.68;4.22;;;;;;;17.89;89.30;96032.00;5055899;28;20204;-68
2021/08/02 00:27:53;;;;;;;10.18;4.30;;;;;;;18.04;88.83;96041.22;5056073;28;20207;-68
2021/08/02 00:30:21;;;;;;;12.13;4.70;;;;;;;17.93;88.93;96038.50;5056930;28;20242;-68
2021/08/02 00:32:48;;;;;;;12.23;4.72;;;;;;;17.72;89.09;96037.16;5056212;28;20234;-68
2021/08/02 00:35:14;;;;;;;13.18;4.63;;;;;;;17.62;89.30;96030.75;5053813;28;20207;-68
2021/08/02 00:37:49;;;;;;;10.60;4.28;;;;;;;17.85;88.42;96036.97;5056253;28;21116;-68
2021/08/02 00:41:00;;;;;;;7.75;4.55;;;;;;;17.99;87.90;96035.75;5056261;28;20216;-68
2021/08/02 00:43:54;;;;;;;10.30;4.18;;;;;;;17.85;88.30;96030.84;5027275;28;20200;-68
2021/08/02 00:46:26;;;;;;;8.55;4.55;;;;;;;17.65;89.44;96035.63;5054754;28;20216;-68
2021/08/02 00:48:57;;;;;;;14.95;4.80;;;;;;;17.69;89.37;96030.66;5055821;28;20655;-68
2021/08/02 00:51:25;;;;;;;13.55;4.85;;;;;;;17.51;90.32;96034.16;5055609;28;20219;-68
2021/08/02 00:53:59;;;;;;;10.48;5.18;;;;;;;17.50;90.58;96027.22;5056173;28;20211;-68
2021/08/02 00:56:27;;;;;;;7.43;4.55;;;;;;;17.62;89.51;96024.63;5055048;28;20287;-68
2021/08/02 00:58:53;;;;;;;8.73;4.88;;;;;;;17.26;90.53;96025.47;5054897;28;20255;-68
2021/08/02 01:01:22;;;;;;;9.88;4.65;;;;;;;17.47;90.49;96024.97;5056266;28;20235;-68
2021/08/02 01:03:48;;;;;;;9.27;4.93;;;;;;;17.33;90.24;96028.84;5056351;28;20211;-68
2021/08/02 01:06:17;;;;;;;12.32;4.70;;;;;;;17.51;89.67;96028.81;5054965;28;20196;-68
2021/08/02 01:08:48;;;;;;;13.73;5.20;;;;;;;17.40;90.19;96023.44;5055793;28;20205;-68
2021/08/02 01:11:17;;;;;;;13.38;5.18;;;;;;;17.54;89.33;96019.56;5056135;28;21124;-68
2021/08/02 01:13:44;;;;;;;9.65;5.22;;;;;;;17.28;90.33;96026.03;5055236;28;20211;-68
2021/08/02 01:16:11;;;;;;;13.07;4.85;;;;;;;17.35;90.00;96024.13;5055033;28;20213;-68
2021/08/02 01:18:40;;;;;;;13.55;4.82;;;;;;;17.30;90.30;96021.31;5056337;28;20886;-68
2021/08/02 01:21:09;;;;;;;13.13;5.72;;;;;;;17.36;90.38;96025.75;5055514;28;20602;-68
2021/08/02 01:23:38;;;;;;;17.00;5.40;;;;;;;17.20;90.81;96030.84;5055217;28;20207;-68
2021/08/02 01:26:40;;;;;;;15.25;5.30;;;;;;;17.43;90.10;96028.34;5055668;28;20578;-68
2021/08/02 01:29:44;;;;;;;8.27;5.30;;;;;;;17.40;90.14;96032.25;5055211;28;20222;-68
2021/08/02 01:32:10;;;;;;;9.32;5.35;;;;;;;17.23;91.20;96025.88;5055203;28;20231;-68
2021/08/02 01:34:37;;;;;;;10.65;6.30;;;;;;;17.17;91.52;96025.94;5052789;28;20205;-68
2021/08/02 01:37:04;;;;;;;9.15;5.78;;;;;;;17.30;90.90;96020.50;5055240;28;20200;-68
2021/08/02 01:39:33;;;;;;;13.02;6.00;;;;;;;17.34;90.92;96016.38;5055228;28;20244;-68
2021/08/02 01:42:00;;;;;;;14.65;5.95;;;;;;;17.37;90.67;96022.03;5055932;28;20216;-68
2021/08/02 01:44:27;;;;;;;16.52;5.85;;;;;;;17.31;90.85;96028.28;5055186;28;20200;-68
2021/08/02 01:47:03;;;;;;;11.07;5.93;;;;;;;17.38;91.08;96031.66;5054845;28;21000;-68
2021/08/02 01:49:35;;;;;;;16.33;6.93;;;;;;;17.11;92.55;96032.97;5055011;28;20578;-68
2021/08/02 01:52:04;;;;;;;10.52;6.38;;;;;;;17.37;91.72;96030.03;5055384;28;20589;-68
2021/08/02 01:54:41;;;;;;;10.85;6.65;;;;;;;17.36;91.65;96024.94;5055463;28;20207;-68
2021/08/02 01:57:11;;;;;;;13.40;6.90;;;;;;;17.34;92.09;96027.81;5055071;28;20623;-68
2021/08/02 01:59:43;;;;;;;15.80;7.15;;;;;;;17.31;92.75;96035.44;5054907;28;20696;-68
2021/08/02 02:02:12;;;;;;;17.95;7.03;;;;;;;17.35;92.35;96028.63;5055333;28;20232;-68
2021/08/02 02:04:47;;;;;;;17.60;7.63;;;;;;;17.35;93.62;96036.59;5055312;28;20232;-68
2021/08/02 02:07:14;;;;;;;14.45;6.97;;;;;;;17.28;92.61;96028.69;5054689;28;20195;-68
2021/08/02 02:09:42;;;;;;;13.88;6.93;;;;;;;17.05;93.31;96033.03;5055151;28;20207;-68
2021/08/02 02:12:10;;;;;;;16.85;7.45;;;;;;;17.30;92.74;96034.63;5055090;28;20220;-68
2021/08/02 02:14:39;;;;;;;20.02;7.15;;;;;;;17.63;92.19;96044.88;5054699;28;20200;-68
2021/08/02 02:17:07;;;;;;;14.98;7.18;;;;;;;17.62;92.28;96044.06;5054654;28;20224;-68
2021/08/02 02:19:34;;;;;;;11.85;6.80;;;;;;;17.43;92.84;96039.78;5054975;28;20239;-68
2021/08/02 02:22:02;;;;;;;16.35;7.47;;;;;;;17.65;92.17;96042.81;5054979;28;20712;-68
2021/08/02 02:24:30;;;;;;;15.57;7.65;;;;;;;17.67;92.18;96044.22;5057338;28;20205;-68
2021/08/02 02:26:58;;;;;;;14.23;7.18;;;;;;;17.59;93.05;96049.84;5057778;28;20896;-68
2021/08/02 02:29:26;;;;;;;13.20;6.97;;;;;;;17.49;92.47;96046.91;5058505;28;20208;-68
2021/08/02 02:31:53;;;;;;;27.48;8.05;;;;;;;17.51;93.01;96050.13;5059363;28;20659;-68
2021/08/02 02:34:21;;;;;;;14.82;6.93;;;;;;;17.51;92.19;96044.81;5057630;28;20200;-68
2021/08/02 02:36:49;;;;;;;17.98;7.32;;;;;;;17.53;93.35;96053.41;5056574;28;20204;-68
2021/08/02 02:39:17;;;;;;;13.55;6.78;;;;;;;17.40;92.02;96055.41;5059008;28;20214;-68
2021/08/02 02:41:44;;;;;;;14.57;6.78;;;;;;;17.57;91.96;96043.94;5059222;28;20244;-68
2021/08/02 02:44:12;;;;;;;13.05;6.90;;;;;;;17.47;91.64;96040.97;5057950;28;20923;-68
2021/08/02 02:46:39;;;;;;;11.63;6.85;;;;;;;17.30;91.62;96039.16;5056919;28;20196;-68
2021/08/02 02:49:06;;;;;;;15.13;6.97;;;;;;;17.46;91.95;96044.66;5058437;28;20209;-68
2021/08/02 02:51:34;;;;;;;18.05;6.97;;;;;;;17.48;92.32;96041.81;5055658;28;20216;-68
2021/08/02 02:54:03;;;;;;;16.77;6.63;;;;;;;17.45;91.44;96051.06;5059977;28;20211;-68
2021/08/02 02:56:31;;;;;;;17.10;7.18;;;;;;;17.27;92.40;96047.56;5058039;28;20200;-68
2021/08/02 02:58:58;;;;;;;12.32;6.45;;;;;;;17.05;92.61;96051.69;5059466;28;20571;-68
2021/08/02 03:01:31;;;;;;;13.25;6.35;;;;;;;17.08;92.51;96053.88;5059234;28;20220;-68
2021/08/02 03:04:00;;;;;;;21.70;7.30;;;;;;;17.25;92.04;96055.78;5059397;28;20200;-68
2021/08/02 03:06:28;;;;;;;11.68;7.88;;;;;;;17.45;92.17;96051.06;5058254;28;20201;-68
2021/08/02 03:08:55;;;;;;;13.63;6.70;;;;;;;17.16;93.13;96050.97;5059430;28;20203;-68
2021/08/02 03:11:22;;;;;;;15.25;7.10;;;;;;;17.35;92.67;96047.25;5058459;28;20734;-68
2021/08/02 03:13:50;;;;;;;13.60;6.93;;;;;;;17.38;92.61;96046.84;5059283;28;20197;-68
2021/08/02 03:16:17;;;;;;;16.83;7.60;;;;;;;17.37;92.97;96051.34;5058143;28;20209;-68
2021/08/02 03:18:45;;;;;;;17.13;7.40;;;;;;;17.52;91.89;96058.97;5058820;28;20204;-68
2021/08/02 03:21:14;;;;;;;18.02;6.68;;;;;;;17.47;91.74;96056.97;5059005;28;20232;-68
2021/08/02 03:23:49;;;;;;;14.05;7.03;;;;;;;17.55;91.86;96061.16;5059028;28;20200;-68
2021/08/02 03:26:19;;;;;;;14.15;7.18;;;;;;;17.41;91.81;96049.88;5058179;28;20204;-68
2021/08/02 03:28:49;;;;;;;12.45;7.07;;;;;;;17.44;91.64;96057.41;5058634;28;20200;-68
2021/08/02 03:31:21;;;;;;;11.00;6.35;;;;;;;17.55;91.09;96061.97;5058785;28;20213;-68
2021/08/02 03:33:50;;;;;;;15.40;6.30;;;;;;;17.50;91.39;96061.03;5058719;28;20204;-68
2021/08/02 03:36:19;;;;;;;11.57;6.28;;;;;;;17.54;91.07;96063.03;5054699;28;20571;-68
2021/08/02 03:38:50;;;;;;;11.85;6.65;;;;;;;17.31;91.32;96065.56;5058848;28;20200;-68
2021/08/02 03:41:19;;;;;;;18.70;6.35;;;;;;;17.42;91.28;96075.47;5058149;28;20248;-68
2021/08/02 03:43:46;;;;;;;13.02;6.30;;;;;;;17.24;92.20;96071.97;5058527;28;20677;-69
2021/08/02 03:46:13;;;;;;;15.25;6.65;;;;;;;17.37;92.55;96077.97;5058251;28;20201;-68
2021/08/02 03:48:40;;;;;;;13.90;7.15;;;;;;;17.46;92.63;96083.81;5057834;28;20211;-68
2021/08/02 03:51:08;;;;;;;16.77;6.70;;;;;;;17.31;93.00;96078.88;5058485;28;20220;-68
2021/08/02 03:53:42;;;;;;;19.45;7.40;;;;;;;16.95;92.78;96085.97;5059011;28;20201;-68
2021/08/02 03:56:09;;;;;;;13.57;7.18;;;;;;;17.10;92.21;96084.59;5057156;28;21093;-68
2021/08/02 03:58:36;;;;;;;13.77;7.18;;;;;;;17.39;91.93;96083.91;5057864;28;20201;-68
2021/08/02 04:01:03;;;;;;;12.63;7.22;;;;;;;17.49;91.93;96088.69;5058807;28;20224;-68
2021/08/02 04:03:29;;;;;;;16.70;7.88;;;;;;;17.38;92.62;96086.78;5057761;28;20679;-68
2021/08/02 04:05:57;;;;;;;12.70;7.30;;;;;;;17.55;91.42;96093.94;5057577;28;20213;-68
2021/08/02 04:08:26;;;;;;;17.70;7.18;;;;;;;17.57;91.69;96093.75;5057639;28;20295;-68
2021/08/02 04:10:53;;;;;;;14.88;7.35;;;;;;;17.37;92.26;96091.28;5057600;28;20204;-68
2021/08/02 04:13:19;;;;;;;15.57;7.68;;;;;;;17.38;92.28;96097.44;5057342;28;20192;-68
2021/08/02 04:15:47;;;;;;;19.98;7.82;;;;;;;17.53;92.11;96096.03;5056499;28;20212;-68
2021/08/02 04:18:13;;;;;;;17.20;7.97;;;;;;;17.52;92.15;96102.41;5058014;28;20642;-68
2021/08/02 04:20:40;;;;;;;13.95;7.82;;;;;;;17.54;91.57;96097.69;5056836;28;20755;-68
2021/08/02 04:23:07;;;;;;;25.88;7.70;;;;;;;17.47;91.62;96102.25;5057908;28;20738;-68
2021/08/02 04:25:35;;;;;;;15.00;7.35;;;;;;;17.38;91.59;96108.91;5056896;28;20201;-68
2021/08/02 04:28:01;;;;;;;16.23;6.88;;;;;;;17.04;92.28;96107.81;5057222;28;20196;-68
2021/08/02 04:30:28;;;;;;;17.40;7.07;;;;;;;17.09;92.74;96112.28;5056981;28;21233;-68
2021/08/02 04:32:54;;;;;;;22.13;9.13;;;;;;;17.39;92.15;96115.88;5057665;28;20240;-68
2021/08/02 04:35:21;;;;;;;20.10;7.72;;;;;;;17.55;92.31;96112.59;5053173;28;20204;-69
2021/08/02 04:37:47;;;;;;;15.60;8.18;;;;;;;17.57;91.76;96115.06;5057395;28;20215;-68
2021/08/02 04:40:14;;;;;;;17.55;8.10;;;;;;;17.50;91.61;96117.81;5057119;28;20221;-68
2021/08/02 04:42:42;;;;;;;17.40;7.68;;;;;;;17.70;91.57;96121.03;5057207;28;20216;-68
2021/08/02 04:45:10;;;;;;;17.85;7.72;;;;;;;17.56;90.38;96122.22;5057203;28;20208;-68
2021/08/02 04:47:37;;;;;;;15.05;7.57;;;;;;;17.58;91.04;96116.66;5056727;28;20657;-68
2021/08/02 04:50:04;;;;;;;21.13;7.95;;;;;;;17.21;93.09;96110.50;5057036;28;20205;-68
2021/08/02 04:52:30;;;;;;;19.55;7.78;;;;;;;17.42;92.12;96115.41;5057185;28;20216;-68
2021/08/02 04:54:57;;;;;;;20.45;8.02;;;;;;;17.19;92.19;96122.41;5057497;28;20204;-68
2021/08/02 04:57:24;;;;;;;14.77;8.55;;;;;;;17.50;92.49;96123.13;5056364;28;20620;-68
2021/08/02 04:59:51;;;;;;;16.45;7.32;;;;;;;17.35;92.29;96122.69;5056936;28;20196;-68
2021/08/02 05:02:18;;;;;;;15.95;7.90;;;;;;;17.06;93.00;96135.03;5057482;28;20220;-68
2021/08/02 05:04:44;;;;;;;13.32;7.65;;;;;;;17.09;94.35;96125.59;5056165;28;20204;-68
2021/08/02 05:07:11;;;;;;;15.18;7.97;;;;;;;17.45;93.00;96128.31;5056835;28;20204;-68
2021/08/02 05:09:37;;;;;;;16.40;8.35;;;;;;;17.44;91.37;96128.53;5057968;28;20207;-68
2021/08/02 05:12:05;;;;;;;16.33;8.55;;;;;;;17.56;92.39;96132.09;5056802;28;20212;-68
2021/08/02 05:14:31;;;;;;;18.58;8.65;;;;;;;17.47;90.81;96131.56;5056440;28;20212;-68
2021/08/02 05:16:59;;;;;;;13.35;8.13;;;;;;;17.06;91.84;96140.38;5056822;28;20208;-68
2021/08/02 05:19:25;;;;;;;18.02;8.93;;;;;;;17.44;92.74;96132.00;5056910;28;20208;-68
2021/08/02 05:21:52;;;;;;;15.15;8.40;;;;;;;17.55;92.56;96139.25;5056409;28;20224;-68
2021/08/02 05:24:18;;;;;;;15.35;8.85;;;;;;;17.61;92.76;96138.38;5057608;28;20200;-68
2021/08/02 05:26:45;;;;;;;14.82;8.88;;;;;;;17.57;92.29;96139.06;5055889;28;20673;-69
2021/08/02 05:29:11;;;;;;;20.02;9.30;;;;;;;17.66;91.94;96146.50;5056448;28;20204;-69
2021/08/02 05:31:38;;;;;;;20.05;9.13;;;;;;;17.86;91.78;96152.44;5056398;28;20830;-69
2021/08/02 05:34:06;;;;;;;17.77;9.07;;;;;;;17.75;91.09;96151.31;5056482;28;20204;-69
2021/08/02 05:36:32;;;;;;;19.65;9.55;;;;;;;17.51;92.14;96155.91;5051346;28;20215;-69
2021/08/02 05:38:59;;;;;;;19.67;9.73;;;;;;;17.56;92.01;96154.19;5056312;28;20205;-69
2021/08/02 05:41:25;;;;;;;16.13;8.70;;;;;;;17.17;91.82;96165.25;5056067;28;20224;-68
2021/08/02 05:43:52;;;;;;;16.73;9.10;;;;;;;17.55;91.42;96157.91;5055451;28;20745;-69
2021/08/02 05:46:18;;;;;;;15.13;9.35;;;;;;;17.58;90.17;96156.63;5055134;28;20207;-69
2021/08/02 05:48:45;;;;;;;18.17;9.82;;;;;;;17.68;89.83;96157.78;5056730;28;20552;-69
2021/08/02 05:51:13;;;;;;;23.98;9.88;;;;;;;17.23;91.83;96159.03;5055605;28;20227;-68
2021/08/02 05:53:40;;;;;;;16.17;9.77;;;;;;;17.25;91.84;96167.66;5055861;28;20201;-68
2021/08/02 05:56:07;;;;;;;21.98;9.85;;;;;;;17.43;91.26;96169.53;5055253;28;20857;-69
2021/08/02 05:58:33;;;;;;;18.35;9.98;;;;;;;16.98;92.99;96167.25;5057463;28;20208;-68
2021/08/02 06:01:00;;;;;;;21.33;10.43;;;;;;;17.52;92.94;96169.00;5060201;28;20239;-68
2021/08/02 06:03:26;;;;;;;18.85;10.25;;;;;;;17.51;92.07;96166.56;5060676;28;20200;-68
2021/08/02 06:05:53;;;;;;;18.88;10.65;;;;;;;17.67;91.58;96172.13;5059681;28;20200;-68
2021/08/02 06:08:20;;;;;;;20.55;9.88;;;;;;;17.65;91.43;96166.19;5059844;28;20668;-68
2021/08/02 06:10:47;;;;;;;22.52;10.18;;;;;;;17.64;91.69;96167.22;5060368;28;20223;-68
2021/08/02 06:13:13;;;;;;;22.70;10.13;;;;;;;17.68;90.45;96167.59;5060139;28;20201;-68
2021/08/02 06:15:40;;;;;;;20.23;10.15;;;;;;;17.93;92.04;96172.63;5059103;28;20212;-68
2021/08/02 06:18:06;;;;;;;18.48;9.32;;;;;;;17.55;90.43;96168.56;5059350;28;20201;-69
2021/08/02 06:20:33;;;;;;;20.90;9.40;;;;;;;17.29;92.08;96176.81;5059523;28;20197;-68
2021/08/02 06:22:59;;;;;;;16.00;9.73;;;;;;;17.51;91.63;96185.22;5059757;28;20220;-68
2021/08/02 06:25:27;;;;;;;13.75;9.40;;;;;;;18.00;90.69;96180.56;5058953;28;20200;-69
2021/08/02 06:27:54;;;;;;;19.55;9.73;;;;;;;17.88;90.08;96185.00;5059704;28;20197;-68
2021/08/02 06:30:20;;;;;;;17.75;9.73;;;;;;;17.78;90.36;96182.03;5059968;28;20211;-68
2021/08/02 06:32:47;;;;;;;16.95;9.82;;;;;;;18.01;90.28;96179.50;5059516;28;20220;-68
2021/08/02 06:35:14;;;;;;;18.85;10.15;;;;;;;18.23;90.39;96178.03;5056486;28;20881;-68
2021/08/02 06:37:40;;;;;;;16.98;9.73;;;;;;;18.35;90.35;96180.53;5059013;28;20287;-68
2021/08/02 06:40:10;;;;;;;18.15;9.48;;;;;;;18.56;88.29;96182.69;5059769;28;20295;-68
2021/08/02 06:42:38;;;;;;;19.50;9.98;;;;;;;18.75;89.04;96186.09;5059606;28;20228;-68
2021/08/02 06:45:05;;;;;;;18.75;8.75;;;;;;;18.53;87.63;96185.84;5059965;28;20200;-68
2021/08/02 06:47:32;;;;;;;16.35;9.45;;;;;;;18.32;88.27;96187.34;5058273;28;20200;-68
2021/08/02 06:49:59;;;;;;;16.98;9.25;;;;;;;18.02;89.45;96191.81;5059666;28;20201;-68
2021/08/02 06:52:25;;;;;;;19.33;10.25;;;;;;;18.19;89.32;96192.84;5059107;28;20223;-68
2021/08/02 06:54:52;;;;;;;18.45;9.48;;;;;;;17.95;90.46;96194.56;5059274;28;20219;-68
2021/08/02 06:57:19;;;;;;;18.00;10.43;;;;;;;17.92;90.93;96188.84;5057777;28;20575;-68
2021/08/02 06:59:46;;;;;;;17.73;10.07;;;;;;;17.72;91.51;96188.28;5058851;28;20203;-68
2021/08/02 07:02:13;;;;;;;15.13;9.65;;;;;;;17.73;91.53;96184.56;5058880;28;20243;-68
2021/08/02 07:04:39;;;;;;;17.55;9.27;;;;;;;17.61;91.54;96182.88;5059117;28;20197;-69
2021/08/02 07:07:06;;;;;;;17.55;10.00;;;;;;;17.51;92.09;96182.56;5058297;28;20216;-68
2021/08/02 07:09:33;;;;;;;16.77;9.30;;;;;;;17.87;90.77;96181.53;5058030;28;20282;-68
2021/08/02 07:11:59;;;;;;;21.20;10.68;;;;;;;17.90;91.55;96182.94;5058671;28;20725;-68
2021/08/02 07:14:26;;;;;;;18.05;9.35;;;;;;;17.93;90.40;96185.16;5059460;28;20207;-68
2021/08/02 07:16:54;;;;;;;19.60;9.40;;;;;;;18.43;89.77;96185.56;5056911;28;20205;-68
2021/08/02 07:19:21;;;;;;;19.40;10.57;;;;;;;18.67;90.32;96192.59;5058095;28;20204;-68
2021/08/02 07:21:47;;;;;;;18.67;10.13;;;;;;;18.55;88.24;96194.41;5058503;28;20225;-69
2021/08/02 07:24:14;;;;;;;15.43;8.48;;;;;;;18.62;87.36;96188.97;5057733;28;20844;-68
2021/08/02 07:26:41;;;;;;;23.40;10.18;;;;;;;18.93;89.65;96198.34;5056629;28;20196;-69
2021/08/02 07:29:07;;;;;;;18.17;9.55;;;;;;;19.04;87.42;96189.56;5056070;28;20215;-68
2021/08/02 07:31:34;;;;;;;18.30;9.15;;;;;;;18.96;86.39;96195.25;5056619;28;20704;-69
2021/08/02 07:34:02;;;;;;;19.38;9.52;;;;;;;18.88;87.46;96201.97;5056586;28;20204;-69
2021/08/02 07:36:28;;;;;;;17.63;9.38;;;;;;;18.63;88.47;96196.75;5053132;28;20692;-68
2021/08/02 07:38:55;;;;;;;13.95;7.95;;;;;;;18.16;89.35;96193.28;5056973;28;20200;-69
2021/08/02 07:41:22;;;;;;;16.10;9.15;;;;;;;18.81;88.07;96198.56;5057113;28;20301;-68
2021/08/02 07:43:49;;;;;;;17.77;9.82;;;;;;;19.01;87.30;96194.53;5057073;28;20207;-68
2021/08/02 07:46:15;;;;;;;14.13;7.70;;;;;;;18.72;86.32;96191.91;5056396;28;20211;-69
2021/08/02 07:48:42;;;;;;;15.73;9.48;;;;;;;19.32;86.42;96191.56;5057003;28;20971;-69
2021/08/02 07:51:10;;;;;;;13.55;8.55;;;;;;;19.14;86.19;96189.00;5056818;28;20225;-68
2021/08/02 07:53:38;;;;;;;13.63;7.85;;;;;;;18.93;86.57;96197.53;5057406;28;20196;-68
2021/08/02 07:56:05;;;;;;;14.65;7.65;;;;;;;18.77;85.81;96190.19;5057077;28;20669;-69
2021/08/02 07:58:31;;;;;;;13.60;8.02;;;;;;;19.31;85.00;96195.28;5057101;28;20204;-69
2021/08/02 08:00:58;;;;;;;15.38;8.05;;;;;;;19.20;85.50;96193.44;5057318;28;20258;-68
2021/08/02 08:03:25;;;;;;;12.65;6.97;;;;;;;19.00;84.50;96203.59;5057294;28;20221;-68
2021/08/02 08:05:52;;;;;;;13.00;5.88;;;;;;;18.89;84.59;96199.06;5052756;28;20200;-69
2021/08/02 08:08:21;;;;;;;17.20;8.25;;;;;;;19.37;85.19;96205.06;5052558;28;20197;-69
2021/08/02 08:10:48;;;;;;;15.85;7.93;;;;;;;19.60;83.58;96206.69;5055958;28;20232;-68
2021/08/02 08:13:16;;;;;;;15.70;9.27;;;;;;;19.77;83.61;96199.59;5056533;28;20201;-69
2021/08/02 08:15:42;;;;;;;14.15;9.02;;;;;;;20.26;85.09;96201.72;5054246;28;20211;-69
2021/08/02 08:18:09;;;;;;;14.90;7.45;;;;;;;19.55;83.02;96196.94;5054684;28;20204;-72
2021/08/02 08:20:35;;;;;;;15.00;7.43;;;;;;;19.69;83.45;96199.97;5055231;28;20207;-68
2021/08/02 08:23:02;;;;;;;14.95;7.80;;;;;;;19.89;85.01;96195.03;5056252;28;20230;-68
2021/08/02 08:25:30;;;;;;;12.52;7.97;;;;;;;20.39;82.89;96193.41;5055761;28;20205;-71
2021/08/02 08:27:57;;;;;;;15.60;8.07;;;;;;;20.32;84.87;96200.78;5056336;28;20211;-67
2021/08/02 08:30:23;;;;;;;15.70;7.78;;;;;;;20.16;82.16;96201.50;5055327;28;20204;-70
2021/08/02 08:32:50;;;;;;;12.23;7.03;;;;;;;20.43;79.28;96197.25;5056002;28;20231;-69
2021/08/02 08:35:16;;;;;;;14.60;7.35;;;;;;;20.88;80.84;96201.63;5052646;28;20201;-72
2021/08/02 08:37:43;;;;;;;15.20;7.35;;;;;;;21.12;81.19;96198.56;5055739;28;20200;-71
2021/08/02 08:40:11;;;;;;;10.93;6.70;;;;;;;20.71;78.90;96200.75;5055215;28;20219;-70
2021/08/02 08:42:41;;;;;;;9.27;6.03;;;;;;;20.57;76.21;96207.44;5053971;28;20220;-69
2021/08/02 08:45:09;;;;;;;10.93;6.05;;;;;;;21.06;77.15;96204.88;5054169;28;20319;-70
2021/08/02 08:47:36;;;;;;;11.38;6.60;;;;;;;20.86;78.93;96204.53;5053719;28;20200;-69
2021/08/02 08:50:04;;;;;;;10.88;5.90;;;;;;;20.87;78.82;96200.81;5054379;28;20697;-72
2021/08/02 08:52:33;;;;;;;8.65;5.72;;;;;;;20.77;76.18;96207.03;5053746;28;20239;-68
2021/08/02 08:55:00;;;;;;;8.98;5.70;;;;;;;20.95;77.01;96189.69;5054115;28;20200;-71
2021/08/02 08:57:26;;;;;;;9.07;5.47;;;;;;;21.01;70.01;96188.72;5053642;28;20200;-67
2021/08/02 08:59:54;;;;;;;11.35;5.82;;;;;;;21.11;74.10;96191.56;5053664;28;20220;-70
2021/08/02 09:02:25;;;;;;;13.95;6.35;;;;;;;21.21;76.32;96185.59;5052203;28;20236;-69
2021/08/02 09:04:52;;;;;;;9.85;6.80;;;;;;;21.50;77.61;96186.06;5055594;28;20269;-71
2021/08/02 09:07:20;;;;;;;12.75;6.70;;;;;;;21.43;76.29;96185.41;5054830;28;20203;-68
2021/08/02 09:09:47;;;;;;;11.48;6.88;;;;;;;21.93;75.65;96179.97;5054518;28;20208;-72
2021/08/02 09:12:16;;;;;;;7.60;4.60;;;;;;;21.34;69.67;96191.41;5053719;28;20217;-72
2021/08/02 09:14:53;;;;;;;10.15;5.20;;;;;;;21.52;70.25;96194.69;5054210;28;20347;-72
2021/08/02 09:17:35;;;;;;;10.80;4.40;;;;;;;21.13;70.35;96196.69;5053653;28;20920;-69
2021/08/02 09:20:05;;;;;;;7.10;5.05;;;;;;;21.85;72.00;96193.81;5053465;28;20208;-72
2021/08/02 09:22:33;;;;;;;10.32;4.90;;;;;;;21.20;72.24;96198.16;5052631;28;20227;-69
2021/08/02 09:25:11;;;;;;;13.23;5.72;;;;;;;21.61;67.88;96197.75;5054432;28;20195;-71
2021/08/02 09:27:39;;;;;;;11.85;5.97;;;;;;;22.45;70.90;96193.56;5053233;28;20200;-71
2021/08/02 09:30:18;;;;;;;11.98;6.10;;;;;;;22.40;69.69;96190.84;5055793;28;20216;-72
2021/08/02 09:32:51;;;;;;;7.28;4.90;;;;;;;22.35;66.53;96193.47;5055770;28;20220;-70
2021/08/02 09:35:29;;;;;;;7.32;4.30;;;;;;;22.84;67.06;96197.75;5057418;28;20201;-72
2021/08/02 09:37:57;;;;;;;9.02;4.50;;;;;;;22.72;64.05;96194.38;5059265;28;20196;-69
2021/08/02 09:40:23;;;;;;;9.35;4.70;;;;;;;22.14;64.85;96191.53;5059591;28;20208;-70
2021/08/02 09:42:55;;;;;;;8.25;4.80;;;;;;;22.10;65.60;96195.78;5058790;28;20224;-73
2021/08/02 09:45:22;;;;;;;8.18;4.63;;;;;;;22.00;68.10;96192.16;5059343;28;20679;-70
2021/08/02 09:47:51;;;;;;;7.05;4.38;;;;;;;22.42;66.57;96196.75;5059612;28;20220;-69
2021/08/02 09:50:35;;;;;;;8.82;4.95;;;;;;;22.56;67.21;96200.69;5059501;28;20567;-71
2021/08/02 09:53:02;;;;;;;12.52;5.65;;;;;;;22.21;65.57;96202.91;5059350;28;20204;-70
2021/08/02 09:55:29;;;;;;;8.57;4.70;;;;;;;21.97;64.79;96186.47;5059141;28;20207;-68
2021/08/02 09:57:56;;;;;;;9.48;5.72;;;;;;;22.19;67.82;96193.47;5059380;28;20211;-69
2021/08/02 10:00:23;;;;;;;8.45;5.40;;;;;;;22.19;66.40;96196.16;5059425;28;20747;-71
2021/08/02 10:02:52;;;;;;;8.50;5.25;;;;;;;22.78;67.13;96190.69;5059445;28;20224;-71
2021/08/02 10:05:20;;;;;;;10.05;6.05;;;;;;;23.01;68.32;96195.78;5056589;28;20291;-72
2021/08/02 10:07:48;;;;;;;8.45;5.45;;;;;;;22.57;64.55;96188.03;5057502;28;20233;-68
2021/08/02 10:10:17;;;;;;;12.75;5.28;;;;;;;22.92;66.60;96189.22;5058954;28;20200;-70
2021/08/02 10:12:45;;;;;;;8.32;5.10;;;;;;;22.46;64.55;96184.44;5055821;28;20793;-68
2021/08/02 10:15:14;;;;;;;9.52;5.10;;;;;;;22.23;66.94;96190.03;5057998;28;20566;-68
2021/08/02 10:17:45;;;;;;;6.32;4.80;;;;;;;22.22;65.97;96192.97;5060187;28;20212;-72
2021/08/02 10:20:26;;;;;;;10.60;5.40;;;;;;;22.91;63.55;96185.75;5058110;28;20864;-68
2021/08/02 10:22:53;;;;;;;8.60;5.05;;;;;;;23.30;66.41;96179.13;5058321;28;20246;-69
2021/08/02 10:25:32;;;;;;;7.82;3.90;;;;;;;22.05;64.87;96168.06;5058649;28;20205;-72
2021/08/02 10:28:06;;;;;;;10.00;4.57;;;;;;;22.40;64.44;96173.88;5057904;28;20675;-70
2021/08/02 10:30:33;;;;;;;8.60;4.80;;;;;;;22.77;63.74;96175.63;5058905;28;20204;-70
2021/08/02 10:33:00;;;;;;;10.98;5.03;;;;;;;22.75;68.01;96175.09;5058473;28;20220;-68
2021/08/02 10:35:40;;;;;;;11.38;4.32;;;;;;;23.55;63.17;96171.25;5056620;28;20211;-69
2021/08/02 10:38:08;;;;;;;7.28;4.30;;;;;;;23.33;63.43;96167.84;5058933;28;20212;-69
2021/08/02 10:40:50;;;;;;;6.80;4.10;;;;;;;23.30;62.54;96160.28;5059559;28;20201;-72
2021/08/02 10:43:31;;;;;;;9.23;3.65;;;;;;;23.91;62.54;96160.47;5058310;28;20231;-71
2021/08/02 10:45:58;;;;;;;5.95;3.20;;;;;;;23.69;60.16;96151.72;5058058;28;20223;-69
2021/08/02 10:48:28;;;;;;;12.35;4.30;;;;;;;23.85;60.44;96150.72;5059001;28;20211;-69
2021/08/02 10:50:57;;;;;;;13.85;4.20;;;;;;;24.47;60.37;96147.00;5058713;28;20200;-69
2021/08/02 10:53:24;;;;;;;5.82;3.60;;;;;;;24.75;59.23;96147.34;5057264;28;20680;-71
2021/08/02 10:55:52;;;;;;;6.80;3.70;;;;;;;24.66;60.10;96142.75;5057868;28;20292;-70
2021/08/02 10:58:27;;;;;;;8.88;4.10;;;;;;;24.60;59.56;96141.09;5058629;28;20208;-71
2021/08/02 11:00:58;;;;;;;8.48;3.60;;;;;;;24.41;57.42;96139.16;5057667;28;20203;-70
2021/08/02 11:03:36;;;;;;;6.72;3.83;;;;;;;24.73;57.19;96136.03;5058160;28;20623;-70
2021/08/02 11:06:08;;;;;;;8.20;3.80;;;;;;;24.73;61.59;96136.03;5057556;28;20207;-70
2021/08/02 11:08:42;;;;;;;5.25;3.50;;;;;;;24.65;56.45;96139.22;5058043;28;20585;-70
2021/08/02 11:11:10;;;;;;;6.07;3.10;;;;;;;24.47;57.85;96133.53;5057961;28;20422;-70
2021/08/02 11:13:36;;;;;;;7.40;3.13;;;;;;;24.61;54.07;96130.06;5055658;28;20204;-70
2021/08/02 11:16:05;;;;;;;6.93;3.58;;;;;;;24.74;55.59;96129.53;5057848;28;20216;-70
2021/08/02 11:18:31;;;;;;;5.00;3.38;;;;;;;25.86;54.99;96126.31;5058452;28;20205;-70
2021/08/02 11:20:58;;;;;;;11.93;3.30;;;;;;;25.43;53.52;96120.72;5058403;28;20225;-70
2021/08/02 11:23:37;;;;;;;7.53;3.38;;;;;;;25.83;56.83;96117.94;5059067;28;20441;-70
2021/08/02 11:26:09;;;;;;;6.63;3.00;;;;;;;25.25;53.67;96125.84;5057328;28;20200;-70
2021/08/02 11:28:43;;;;;;;11.32;3.38;;;;;;;25.79;55.87;96126.84;5058645;28;20212;-70
2021/08/02 11:31:11;;;;;;;7.97;3.10;;;;;;;25.10;55.41;96123.16;5058424;28;20234;-70
2021/08/02 11:33:38;;;;;;;6.03;3.33;;;;;;;25.53;56.05;96130.66;5058796;28;20277;-70